Time;durP1;ratioP1;P1;durP2;ratioP2;P2;SDS_P1;SDS_P2;PMS_P1;PMS_P2;Temp;Humidity;BMP_temperature;BMP_pressure;BME280_temperature;BME280_humidity;BME280_pressure;Samples;Min_cycle;Max_cycle;Signal;HPM_P1;HPM_P2
2022/09/09 00:01:00;;;;;;;;;;;15.80;99.90;;;;;;5090538;28;19916;-63
2022/09/09 00:03:26;;;;;;;;;;;15.70;99.90;;;;;;5090509;28;19961;-63
2022/09/09 00:06:08;;;;;;;;;;;15.70;99.90;;;;;;5090486;28;20374;-63
2022/09/09 00:11:26;;;;;;;;;;;15.50;99.90;;;;;;5071039;28;19913;-65
2022/09/09 00:13:53;;;;;;;;;;;15.50;99.90;;;;;;5070869;28;20007;-65
2022/09/09 00:16:22;;;;;;;;;;;15.40;99.90;;;;;;5071160;28;20302;-65
2022/09/09 00:19:07;;;;;;;;;;;15.40;99.90;;;;;;5071121;28;20390;-65
2022/09/09 00:21:36;;;;;;;;;;;15.40;99.90;;;;;;5070805;28;19909;-65
2022/09/09 00:24:09;;;;;;;;;;;15.40;99.90;;;;;;5070739;28;20286;-65
2022/09/09 00:26:38;;;;;;;;;;;15.40;99.90;;;;;;5070769;28;19908;-65
2022/09/09 00:29:09;;;;;;;;;;;15.30;99.90;;;;;;5070858;28;19909;-65
2022/09/09 00:31:37;;;;;;;;;;;15.30;99.90;;;;;;5070588;28;19916;-65
2022/09/09 00:34:12;;;;;;;;;;;15.30;99.90;;;;;;5070814;28;20386;-65
2022/09/09 00:36:38;;;;;;;;;;;15.30;99.90;;;;;;5070750;28;19916;-65
2022/09/09 00:39:04;;;;;;;;;;;15.30;99.90;;;;;;5070706;28;19931;-65
2022/09/09 00:41:39;;;;;;;;;;;15.20;99.90;;;;;;5070397;28;20371;-64
2022/09/09 00:44:20;;;;;;;;;;;15.20;99.90;;;;;;5070589;28;20373;-64
2022/09/09 00:47:05;;;;;;;;;;;15.20;99.90;;;;;;5070544;28;19994;-64
2022/09/09 00:49:38;;;;;;;;;;;15.10;99.90;;;;;;5070127;28;19916;-65
2022/09/09 00:52:20;;;;;;;;;;;15.10;99.90;;;;;;5070320;28;19909;-65
2022/09/09 00:55:05;;;;;;;;;;;15.10;99.90;;;;;;5070179;28;19909;-65
2022/09/09 00:57:32;;;;;;;;;;;15.10;99.90;;;;;;5070043;28;20066;-65
2022/09/09 01:00:17;;;;;;;;;;;15.10;99.90;;;;;;5070290;28;19932;-65
2022/09/09 01:03:03;;;;;;;;;;;15.00;99.90;;;;;;5070241;28;19909;-65
2022/09/09 01:05:50;;;;;;;;;;;15.00;99.90;;;;;;5069861;28;19960;-65
2022/09/09 01:08:36;;;;;;;;;;;14.90;99.90;;;;;;5069765;28;19959;-65
2022/09/09 01:11:02;;;;;;;;;;;14.80;99.90;;;;;;5087662;28;19924;-65
2022/09/09 01:13:30;;;;;;;;;;;14.80;99.90;;;;;;5090314;28;20291;-65
2022/09/09 01:15:57;;;;;;;;;;;14.80;99.90;;;;;;5090225;28;19999;-65
2022/09/09 01:18:26;;;;;;;;;;;14.70;99.90;;;;;;5071766;28;19934;-65
2022/09/09 01:20:55;;;;;;;;;;;14.70;99.90;;;;;;5086539;28;19919;-65
2022/09/09 01:23:31;;;;;;;;;;;14.70;99.90;;;;;;5076285;28;19919;-65
2022/09/09 01:26:08;;;;;;;;;;;14.70;99.90;;;;;;5076595;28;20371;-65
2022/09/09 01:28:35;;;;;;;;;;;14.70;99.90;;;;;;5076502;28;19908;-65
2022/09/09 01:31:01;;;;;;;;;;;14.80;99.90;;;;;;5076433;28;19960;-65
2022/09/09 01:33:27;;;;;;;;;;;14.80;99.90;;;;;;5076171;28;19916;-65
2022/09/09 01:35:57;;;;;;;;;;;14.80;99.90;;;;;;5076124;28;19908;-65
2022/09/09 01:38:23;;;;;;;;;;;14.80;99.90;;;;;;5076080;28;19908;-65
2022/09/09 01:40:51;;;;;;;;;;;14.80;99.90;;;;;;5076003;28;19951;-65
2022/09/09 01:43:18;;;;;;;;;;;14.90;99.90;;;;;;5076222;28;19958;-65
2022/09/09 01:45:44;;;;;;;;;;;14.90;99.90;;;;;;5076211;28;20358;-65
2022/09/09 01:48:09;;;;;;;;;;;14.90;99.90;;;;;;5076171;28;19991;-65
2022/09/09 01:50:35;;;;;;;;;;;14.90;99.90;;;;;;5075860;28;19979;-65
2022/09/09 01:53:01;;;;;;;;;;;14.90;99.90;;;;;;5076089;28;20389;-65
2022/09/09 01:55:29;;;;;;;;;;;14.90;99.90;;;;;;5075697;28;19909;-65
2022/09/09 01:58:11;;;;;;;;;;;14.80;99.90;;;;;;5075981;28;19909;-65
2022/09/09 02:00:40;;;;;;;;;;;14.80;99.90;;;;;;5075914;28;19908;-65
2022/09/09 02:03:13;;;;;;;;;;;14.80;99.90;;;;;;5075624;28;19962;-65
2022/09/09 02:05:41;;;;;;;;;;;14.70;99.90;;;;;;5075839;28;20330;-65
2022/09/09 02:08:08;;;;;;;;;;;14.70;99.90;;;;;;5075464;28;19916;-65
2022/09/09 02:10:53;;;;;;;;;;;14.60;99.90;;;;;;5075224;28;19944;-65
2022/09/09 02:13:21;;;;;;;;;;;14.60;99.90;;;;;;5075286;28;20363;-65
2022/09/09 02:15:56;;;;;;;;;;;14.50;99.90;;;;;;5075649;28;19971;-65
2022/09/09 02:18:25;;;;;;;;;;;14.40;99.90;;;;;;5075581;28;19919;-65
2022/09/09 02:20:51;;;;;;;;;;;14.30;99.90;;;;;;5075539;28;20318;-65
2022/09/09 02:23:17;;;;;;;;;;;;;;;;;;5075210;28;19958;-64
2022/09/09 02:25:44;;;;;;;;;;;14.20;99.90;;;;;;5075391;28;19962;-65
2022/09/09 02:28:10;;;;;;;;;;;14.10;99.90;;;;;;5075400;28;20397;-65
2022/09/09 02:30:37;;;;;;;;;;;14.10;99.90;;;;;;5075256;28;19919;-65
2022/09/09 02:33:04;;;;;;;;;;;14.00;99.90;;;;;;5074298;28;19909;-65
2022/09/09 02:35:30;;;;;;;;;;;13.90;99.90;;;;;;5075253;28;19909;-65
2022/09/09 02:37:59;;;;;;;;;;;14.00;99.90;;;;;;5075178;28;19908;-65
2022/09/09 02:40:24;;;;;;;;;;;13.90;99.90;;;;;;5074843;28;19958;-65
2022/09/09 02:42:50;;;;;;;;;;;14.00;99.90;;;;;;5075115;28;19948;-65
2022/09/09 02:45:18;;;;;;;;;;;14.00;99.90;;;;;;5075066;28;19915;-65
2022/09/09 02:47:49;;;;;;;;;;;14.00;99.90;;;;;;5074599;28;19923;-65
2022/09/09 02:50:17;;;;;;;;;;;14.00;99.90;;;;;;5074599;28;19919;-65
2022/09/09 02:58:17;;;;;;;;;;;14.10;99.90;;;;;;5071045;28;19913;-65
2022/09/09 03:00:43;;;;;;;;;;;14.10;99.90;;;;;;5070978;28;19917;-65
2022/09/09 03:03:09;;;;;;;;;;;14.20;99.90;;;;;;5071027;28;19908;-65
2022/09/09 03:05:35;;;;;;;;;;;14.20;99.90;;;;;;5071139;28;19931;-65
2022/09/09 03:08:02;;;;;;;;;;;14.30;99.90;;;;;;5071090;28;20283;-65
2022/09/09 03:10:27;;;;;;;;;;;14.30;99.90;;;;;;5071013;28;19977;-65
2022/09/09 03:12:52;;;;;;;;;;;14.30;99.90;;;;;;5070721;28;19908;-65
2022/09/09 03:15:18;;;;;;;;;;;14.30;99.90;;;;;;5086366;28;19909;-65
2022/09/09 03:17:43;;;;;;;;;;;14.40;99.90;;;;;;5070828;28;19912;-65
2022/09/09 03:20:09;;;;;;;;;;;14.40;99.90;;;;;;5070851;28;19940;-65
2022/09/09 03:22:35;;;;;;;;;;;14.40;99.90;;;;;;5070778;28;19909;-65
2022/09/09 03:25:02;;;;;;;;;;;14.40;99.90;;;;;;5070783;28;19909;-65
2022/09/09 03:27:28;;;;;;;;;;;14.40;99.90;;;;;;5070681;28;20417;-65
2022/09/09 03:29:54;;;;;;;;;;;14.40;99.90;;;;;;5070298;28;19909;-65
2022/09/09 03:32:22;;;;;;;;;;;14.40;99.90;;;;;;5070515;28;19939;-65
2022/09/09 03:34:49;;;;;;;;;;;14.50;99.90;;;;;;5070541;28;19912;-65
2022/09/09 03:37:15;;;;;;;;;;;14.50;99.90;;;;;;5070333;28;19912;-65
2022/09/09 03:39:40;;;;;;;;;;;14.60;99.90;;;;;;5070176;28;19955;-65
2022/09/09 03:42:06;;;;;;;;;;;14.50;99.90;;;;;;5070036;28;19909;-65
2022/09/09 03:44:31;;;;;;;;;;;14.60;99.90;;;;;;5069949;28;19915;-65
2022/09/09 03:47:00;;;;;;;;;;;14.60;99.90;;;;;;5070200;28;20021;-65
2022/09/09 03:49:28;;;;;;;;;;;14.60;99.90;;;;;;5070229;28;20003;-65
2022/09/09 03:51:54;;;;;;;;;;;14.50;99.90;;;;;;5070202;28;20068;-65
2022/09/09 03:54:20;;;;;;;;;;;14.50;99.90;;;;;;5070072;28;20359;-65
2022/09/09 03:56:45;;;;;;;;;;;14.50;99.90;;;;;;5077732;28;19926;-65
2022/09/09 03:59:11;;;;;;;;;;;14.40;99.90;;;;;;5090291;28;19944;-65
2022/09/09 04:01:36;;;;;;;;;;;14.40;99.90;;;;;;5071970;28;19908;-65
2022/09/09 04:04:02;;;;;;;;;;;14.40;99.90;;;;;;5089896;28;19908;-65
2022/09/09 04:06:27;;;;;;;;;;;14.40;99.90;;;;;;5090152;28;19916;-65
2022/09/09 04:08:53;;;;;;;;;;;14.40;99.90;;;;;;5080470;28;20401;-65
2022/09/09 04:11:18;;;;;;;;;;;14.40;99.90;;;;;;5076576;28;19908;-65
2022/09/09 04:13:44;;;;;;;;;;;14.40;99.90;;;;;;5076544;28;19948;-65
2022/09/09 04:16:11;;;;;;;;;;;14.40;99.90;;;;;;5076437;28;19920;-65
2022/09/09 04:18:36;;;;;;;;;;;14.40;99.90;;;;;;5076490;28;19952;-65
2022/09/09 04:21:03;;;;;;;;;;;14.40;99.90;;;;;;5076403;28;19958;-65
2022/09/09 04:23:29;;;;;;;;;;;14.40;99.90;;;;;;5076105;28;19958;-65
2022/09/09 04:25:55;;;;;;;;;;;14.40;99.90;;;;;;5076020;28;19908;-65
2022/09/09 04:28:22;;;;;;;;;;;14.40;99.90;;;;;;5075978;28;19909;-65
2022/09/09 04:30:47;;;;;;;;;;;14.50;99.90;;;;;;5075979;28;19919;-65
2022/09/09 04:33:14;;;;;;;;;;;14.50;99.90;;;;;;5075999;28;20278;-65
2022/09/09 04:35:43;;;;;;;;;;;14.50;99.90;;;;;;5075931;28;20058;-65
2022/09/09 04:38:09;;;;;;;;;;;14.50;99.90;;;;;;5076072;28;19970;-65
2022/09/09 04:40:34;;;;;;;;;;;14.60;99.90;;;;;;5076096;28;19909;-65
2022/09/09 04:43:00;;;;;;;;;;;14.70;99.90;;;;;;5057779;28;19916;-65
2022/09/09 04:45:26;;;;;;;;;;;14.80;99.90;;;;;;5076004;28;19909;-65
2022/09/09 04:47:52;;;;;;;;;;;14.90;99.90;;;;;;5075594;28;19924;-65
2022/09/09 04:50:18;;;;;;;;;;;14.90;99.90;;;;;;5075874;28;19919;-65
2022/09/09 04:52:44;;;;;;;;;;;15.00;99.90;;;;;;5075867;28;20374;-65
2022/09/09 04:55:09;;;;;;;;;;;15.00;99.90;;;;;;5075552;28;19923;-65
2022/09/09 04:57:35;;;;;;;;;;;15.10;99.90;;;;;;5075255;28;19920;-65
2022/09/09 05:00:01;;;;;;;;;;;15.10;99.90;;;;;;5075398;28;19908;-65
2022/09/09 05:02:27;;;;;;;;;;;15.10;99.90;;;;;;5075275;28;19908;-65
2022/09/09 05:04:52;;;;;;;;;;;15.20;99.90;;;;;;5075321;28;19915;-65
2022/09/09 05:07:18;;;;;;;;;;;15.20;99.90;;;;;;5075567;28;19909;-65
2022/09/09 05:09:45;;;;;;;;;;;15.30;99.90;;;;;;5075466;28;19908;-65
2022/09/09 05:12:10;;;;;;;;;;;15.30;99.90;;;;;;5075386;28;19915;-65
2022/09/09 05:14:37;;;;;;;;;;;15.40;99.90;;;;;;5075380;28;20359;-65
2022/09/09 05:17:03;;;;;;;;;;;15.40;99.90;;;;;;5075244;28;20270;-64
2022/09/09 05:19:28;;;;;;;;;;;15.40;99.90;;;;;;5074619;28;19915;-64
2022/09/09 05:21:54;;;;;;;;;;;15.50;99.90;;;;;;5074965;28;19958;-65
2022/09/09 05:24:19;;;;;;;;;;;15.50;99.90;;;;;;5074824;28;20393;-65
2022/09/09 05:26:45;;;;;;;;;;;15.50;99.90;;;;;;5074896;28;19952;-64
2022/09/09 05:29:10;;;;;;;;;;;15.60;99.90;;;;;;5075050;28;19958;-65
2022/09/09 05:31:36;;;;;;;;;;;15.70;99.90;;;;;;5075031;28;19987;-65
2022/09/09 05:34:01;;;;;;;;;;;15.70;99.90;;;;;;5074878;28;19908;-64
2022/09/09 05:36:27;;;;;;;;;;;15.80;99.90;;;;;;5074863;28;19924;-64
2022/09/09 05:38:53;;;;;;;;;;;15.80;99.90;;;;;;5074619;28;19953;-64
2022/09/09 05:41:19;;;;;;;;;;;15.80;99.90;;;;;;5074824;28;19909;-64
2022/09/09 05:43:46;;;;;;;;;;;15.80;99.90;;;;;;5074515;28;19909;-64
2022/09/09 05:46:13;;;;;;;;;;;15.80;99.90;;;;;;5074729;28;19908;-64
2022/09/09 05:48:39;;;;;;;;;;;15.90;99.90;;;;;;5054454;28;19920;-64
2022/09/09 05:51:07;;;;;;;;;;;15.90;99.90;;;;;;5073268;28;20041;-64
2022/09/09 05:53:33;;;;;;;;;;;15.90;99.90;;;;;;5074140;28;19915;-64
2022/09/09 05:56:03;;;;;;;;;;;16.00;99.90;;;;;;5073750;28;19912;-65
2022/09/09 05:58:29;;;;;;;;;;;16.10;99.90;;;;;;5074289;28;19914;-65
2022/09/09 06:01:12;;;;;;;;;;;16.10;99.90;;;;;;5074018;28;19908;-64
2022/09/09 06:03:38;;;;;;;;;;;16.20;99.90;;;;;;5074118;28;19927;-64
2022/09/09 06:06:05;;;;;;;;;;;16.20;99.90;;;;;;5073948;28;19966;-65
2022/09/09 06:08:31;;;;;;;;;;;16.20;99.90;;;;;;5074164;28;19908;-65
2022/09/09 06:11:02;;;;;;;;;;;16.20;99.90;;;;;;5073932;28;20302;-64
2022/09/09 06:13:27;;;;;;;;;;;16.30;99.90;;;;;;5073968;28;19958;-64
2022/09/09 06:15:53;;;;;;;;;;;16.30;99.90;;;;;;5073611;28;20236;-65
2022/09/09 06:18:19;;;;;;;;;;;16.30;99.90;;;;;;5074024;28;19916;-62
2022/09/09 06:21:00;;;;;;;;;;;16.30;99.90;;;;;;5056124;28;19915;-62
2022/09/09 06:23:27;;;;;;;;;;;16.30;99.90;;;;;;5056002;28;19909;-62
2022/09/09 06:26:00;;;;;;;;;;;16.30;99.90;;;;;;5073924;28;19908;-62
2022/09/09 06:28:26;;;;;;;;;;;16.30;99.90;;;;;;5073696;28;19923;-62
2022/09/09 06:30:58;;;;;;;;;;;16.30;99.90;;;;;;5072055;28;20337;-62
2022/09/09 06:33:23;;;;;;;;;;;16.40;99.90;;;;;;5072463;28;20281;-62
2022/09/09 06:35:53;;;;;;;;;;;16.40;99.90;;;;;;5058406;28;19999;-62
2022/09/09 06:38:18;;;;;;;;;;;16.40;99.90;;;;;;5073661;28;20427;-62
2022/09/09 06:40:50;;;;;;;;;;;16.40;99.90;;;;;;5072686;28;20263;-62
2022/09/09 06:43:16;;;;;;;;;;;16.50;99.90;;;;;;5073263;28;19909;-62
2022/09/09 06:45:42;;;;;;;;;;;16.60;99.90;;;;;;5073563;28;19995;-63
2022/09/09 06:48:08;;;;;;;;;;;16.70;99.90;;;;;;5073322;28;19951;-62
2022/09/09 06:50:34;;;;;;;;;;;16.70;99.90;;;;;;5073235;28;19915;-63
2022/09/09 06:53:00;;;;;;;;;;;16.80;99.90;;;;;;5073211;28;20291;-63
2022/09/09 06:55:25;;;;;;;;;;;16.90;99.90;;;;;;5072172;28;20362;-62
2022/09/09 06:57:51;;;;;;;;;;;17.10;99.90;;;;;;5072861;28;19920;-62
2022/09/09 07:00:18;;;;;;;;;;;17.10;99.90;;;;;;5072580;28;20339;-62
2022/09/09 07:02:44;;;;;;;;;;;17.20;99.90;;;;;;5072551;28;20014;-62
2022/09/09 07:05:09;;;;;;;;;;;17.30;99.90;;;;;;5054669;28;19919;-63
2022/09/09 07:07:35;;;;;;;;;;;17.40;99.90;;;;;;5072151;28;19924;-62
2022/09/09 07:10:00;;;;;;;;;;;17.50;99.90;;;;;;5071722;28;20264;-62
2022/09/09 07:12:26;;;;;;;;;;;17.60;99.90;;;;;;5073194;28;19924;-62
2022/09/09 07:14:51;;;;;;;;;;;17.70;99.90;;;;;;5072755;28;19913;-62
2022/09/09 07:17:17;;;;;;;;;;;17.70;99.90;;;;;;5072477;28;20346;-62
2022/09/09 07:19:43;;;;;;;;;;;17.70;99.90;;;;;;5072901;28;19923;-62
2022/09/09 07:22:08;;;;;;;;;;;17.60;99.90;;;;;;5072597;28;19991;-62
2022/09/09 07:24:34;;;;;;;;;;;17.80;99.90;;;;;;5072903;28;19963;-62
2022/09/09 07:26:59;;;;;;;;;;;17.70;99.90;;;;;;5072893;28;19919;-61
2022/09/09 07:29:25;;;;;;;;;;;17.80;99.90;;;;;;5071812;28;19956;-63
2022/09/09 07:31:50;;;;;;;;;;;17.80;99.90;;;;;;5071749;28;20358;-61
2022/09/09 07:34:16;;;;;;;;;;;17.90;99.90;;;;;;5073205;28;20424;-62
2022/09/09 07:36:42;;;;;;;;;;;18.00;99.90;;;;;;5072263;28;19916;-62
2022/09/09 07:39:08;;;;;;;;;;;;;;;;;;5073032;28;19919;-63
2022/09/09 07:41:35;;;;;;;;;;;18.20;99.90;;;;;;5072696;28;19909;-63
2022/09/09 07:44:06;;;;;;;;;;;18.40;99.90;;;;;;5074853;28;20003;-61
2022/09/09 07:46:31;;;;;;;;;;;18.50;99.90;;;;;;5058378;28;19961;-63
2022/09/09 07:48:58;;;;;;;;;;;18.50;99.90;;;;;;5076054;28;19917;-61
2022/09/09 07:51:26;;;;;;;;;;;18.60;99.90;;;;;;5075657;28;20366;-62
2022/09/09 07:53:53;;;;;;;;;;;18.60;99.90;;;;;;5075556;28;19916;-64
2022/09/09 07:56:22;;;;;;;;;;;18.40;99.90;;;;;;5076328;28;19935;-64
2022/09/09 07:58:48;;;;;;;;;;;18.20;99.90;;;;;;5075428;28;19916;-61
2022/09/09 08:01:15;;;;;;;;;;;18.10;99.90;;;;;;5076367;28;19909;-63
2022/09/09 08:03:41;;;;;;;;;;;18.00;99.90;;;;;;5076323;28;19995;-63
2022/09/09 08:06:07;;;;;;;;;;;17.90;99.90;;;;;;5076073;28;19974;-62
2022/09/09 08:08:35;;;;;;;;;;;17.70;99.90;;;;;;5075780;28;19912;-62
2022/09/09 08:11:16;;;;;;;;;;;17.70;99.90;;;;;;5072319;28;19913;-63
2022/09/09 08:13:42;;;;;;;;;;;18.00;99.90;;;;;;5075255;28;19913;-63
2022/09/09 08:16:10;;;;;;;;;;;18.80;99.90;;;;;;5057791;28;19923;-64
2022/09/09 08:18:36;;;;;;;;;;;19.30;99.90;;;;;;5075193;28;20362;-64
2022/09/09 08:21:02;;;;;;;;;;;;;;;;;;5075919;28;19912;-64
2022/09/09 08:23:27;;;;;;;;;;;20.30;99.90;;;;;;5075780;28;19912;-63
2022/09/09 08:25:52;;;;;;;;;;;20.00;99.90;;;;;;5075620;28;20367;-64
2022/09/09 08:28:18;;;;;;;;;;;20.40;99.90;;;;;;5075859;28;19913;-63
2022/09/09 08:30:43;;;;;;;;;;;20.20;99.90;;;;;;5074660;28;20006;-64
2022/09/09 08:33:09;;;;;;;;;;;20.50;99.90;;;;;;5075136;28;19917;-64
2022/09/09 08:35:34;;;;;;;;;;;20.70;99.90;;;;;;5075452;28;20350;-65
2022/09/09 08:38:00;;;;;;;;;;;20.10;99.90;;;;;;5074955;28;20363;-63
2022/09/09 08:40:28;;;;;;;;;;;19.70;99.90;;;;;;5074787;28;19913;-66
2022/09/09 08:42:56;;;;;;;;;;;19.60;99.90;;;;;;5075309;28;19909;-67
2022/09/09 08:45:25;;;;;;;;;;;19.80;99.90;;;;;;5075595;28;20287;-66
2022/09/09 08:47:57;;;;;;;;;;;19.70;99.90;;;;;;5074902;28;19913;-67
2022/09/09 08:50:27;;;;;;;;;;;19.20;99.90;;;;;;5075118;28;19998;-67
2022/09/09 08:53:01;;;;;;;;;;;19.00;99.90;;;;;;5074697;28;20416;-67
2022/09/09 08:55:30;;;;;;;;;;;19.20;99.90;;;;;;5074103;28;20338;-67
2022/09/09 08:57:57;;;;;;;;;;;19.40;99.90;;;;;;5073485;28;19920;-67
2022/09/09 09:00:26;;;;;;;;;;;19.90;99.90;;;;;;5074967;28;19908;-65
2022/09/09 09:03:11;;;;;;;;;;;20.50;99.90;;;;;;5075062;28;20122;-65
2022/09/09 09:11:08;;;;;;;;;;;22.50;99.90;;;;;;5097371;27;20302;-66
2022/09/09 09:16:23;;;;;;;;;;;20.80;99.90;;;;;;5070499;28;19917;-66
2022/09/09 09:18:50;;;;;;;;;;;21.40;99.90;;;;;;5066028;28;19966;-66
2022/09/09 09:21:21;;;;;;;;;;;22.40;99.90;;;;;;5050448;28;20363;-66
2022/09/09 09:23:55;;;;;;;;;;;22.50;99.90;;;;;;5050567;28;19913;-66
2022/09/09 09:26:22;;;;;;;;;;;22.50;99.90;;;;;;5049360;28;19937;-66
2022/09/09 09:28:47;;;;;;;;;;;21.90;99.90;;;;;;5049763;28;19913;-67
2022/09/09 09:31:13;;;;;;;;;;;21.40;99.90;;;;;;5048776;28;20229;-66
2022/09/09 09:36:19;;;;;;;;;;;21.30;99.90;;;;;;5061720;28;20285;-66
2022/09/09 09:38:54;;;;;;;;;;;20.80;99.90;;;;;;5067792;28;20003;-66
2022/09/09 09:41:39;;;;;;;;;;;21.00;99.90;;;;;;5054163;28;20364;-66
2022/09/09 09:44:07;;;;;;;;;;;21.80;99.90;;;;;;5059030;28;19920;-65
2022/09/09 09:46:32;;;;;;;;;;;21.70;99.90;;;;;;5068457;28;20371;-66
2022/09/09 09:48:59;;;;;;;;;;;21.70;99.90;;;;;;5052072;28;19919;-66
2022/09/09 09:51:25;;;;;;;;;;;22.00;99.90;;;;;;5051261;28;20317;-66
2022/09/09 09:53:53;;;;;;;;;;;21.90;99.90;;;;;;5050457;28;19915;-66
2022/09/09 09:56:27;;;;;;;;;;;21.40;99.90;;;;;;5050655;28;20290;-66
2022/09/09 09:58:54;;;;;;;;;;;21.20;99.90;;;;;;5050234;28;20413;-66
2022/09/09 10:01:24;;;;;;;;;;;21.50;99.90;;;;;;5066104;28;20280;-66
2022/09/09 10:03:51;;;;;;;;;;;21.80;99.90;;;;;;5068243;28;19962;-65
2022/09/09 10:06:17;;;;;;;;;;;22.40;99.90;;;;;;5049430;28;19959;-65
2022/09/09 10:08:46;;;;;;;;;;;22.20;99.90;;;;;;5050243;28;19973;-66
2022/09/09 10:11:16;;;;;;;;;;;22.30;99.90;;;;;;5066344;28;20010;-66
2022/09/09 10:13:49;;;;;;;;;;;22.00;99.90;;;;;;5070216;28;19909;-66
2022/09/09 10:16:35;;;;;;;;;;;21.60;99.90;;;;;;5051637;28;19924;-66
2022/09/09 10:19:20;;;;;;;;;;;22.00;99.90;;;;;;5049853;28;20372;-66
2022/09/09 10:22:06;;;;;;;;;;;21.90;99.90;;;;;;5045244;28;19917;-66
2022/09/09 10:24:41;;;;;;;;;;;22.70;99.90;;;;;;5029650;28;19913;-66
2022/09/09 10:27:27;;;;;;;;;;;23.30;99.90;;;;;;5047763;28;19928;-66
2022/09/09 10:30:12;;;;;;;;;;;22.40;99.90;;;;;;5053846;28;19913;-66
2022/09/09 10:35:39;;;;;;;;;;;22.80;99.90;;;;;;5070326;28;19912;-67
2022/09/09 10:38:13;;;;;;;;;;;23.60;99.90;;;;;;5070443;28;20003;-67
2022/09/09 10:43:39;;;;;;;;;;;23.20;99.90;;;;;;5131577;27;19916;-67
2022/09/09 10:46:26;;;;;;;;;;;22.20;99.90;;;;;;5131430;28;19911;-67
2022/09/09 10:48:58;;;;;;;;;;;21.70;99.90;;;;;;5110829;28;20271;-66
2022/09/09 10:51:31;;;;;;;;;;;21.50;99.90;;;;;;5126606;28;20416;-67
2022/09/09 10:54:04;;;;;;;;;;;21.20;99.90;;;;;;5129810;28;19951;-66
2022/09/09 10:56:30;;;;;;;;;;;21.20;99.90;;;;;;5131439;28;20370;-66
2022/09/09 10:59:00;;;;;;;;;;;21.20;99.90;;;;;;5114356;28;19915;-66
2022/09/09 11:01:29;;;;;;;;;;;21.70;99.90;;;;;;5110321;28;19916;-66
2022/09/09 11:03:58;;;;;;;;;;;21.70;99.90;;;;;;5110626;28;19908;-66
2022/09/09 11:06:27;;;;;;;;;;;21.80;99.90;;;;;;5110989;28;20282;-66
2022/09/09 11:08:54;;;;;;;;;;;22.00;99.90;;;;;;5110752;28;19918;-66
2022/09/09 11:11:26;;;;;;;;;;;22.30;99.90;;;;;;5109164;28;20486;-66
2022/09/09 11:13:55;;;;;;;;;;;22.60;99.90;;;;;;5108825;28;19954;-66
2022/09/09 11:16:25;;;;;;;;;;;22.40;99.90;;;;;;5109062;28;20430;-66
2022/09/09 11:18:52;;;;;;;;;;;21.70;99.90;;;;;;5109217;28;20334;-66
2022/09/09 11:21:22;;;;;;;;;;;21.80;99.90;;;;;;5107384;28;19908;-66
2022/09/09 11:23:50;;;;;;;;;;;22.10;99.90;;;;;;5109216;28;20370;-66
2022/09/09 11:26:19;;;;;;;;;;;22.00;99.90;;;;;;5109981;28;19909;-66
2022/09/09 11:29:05;;;;;;;;;;;22.30;99.90;;;;;;5110463;28;19912;-67
2022/09/09 11:31:50;;;;;;;;;;;22.50;99.90;;;;;;5110049;28;19908;-66
2022/09/09 11:34:21;;;;;;;;;;;22.10;99.90;;;;;;5110372;28;19944;-66
2022/09/09 11:37:06;;;;;;;;;;;22.20;99.90;;;;;;5109488;28;19914;-66
2022/09/09 11:39:52;;;;;;;;;;;22.20;99.90;;;;;;5109733;28;19954;-67
2022/09/09 11:42:20;;;;;;;;;;;22.00;99.90;;;;;;5109786;28;19920;-67
2022/09/09 11:44:45;;;;;;;;;;;22.10;99.90;;;;;;5110432;28;19915;-67
2022/09/09 11:47:30;;;;;;;;;;;22.20;99.90;;;;;;5109948;28;19908;-67
2022/09/09 11:50:07;;;;;;;;;;;22.60;99.90;;;;;;5109889;28;19980;-66
2022/09/09 11:52:38;;;;;;;;;;;22.50;99.90;;;;;;5110002;28;20366;-66
2022/09/09 11:55:23;;;;;;;;;;;22.10;99.90;;;;;;5096056;28;19908;-66
2022/09/09 11:57:57;;;;;;;;;;;22.00;99.90;;;;;;5096497;28;20294;-66
2022/09/09 12:00:43;;;;;;;;;;;21.60;99.90;;;;;;5096396;28;19908;-66
2022/09/09 12:03:29;;;;;;;;;;;21.60;99.90;;;;;;5095996;28;19919;-66
2022/09/09 12:05:55;;;;;;;;;;;21.90;99.90;;;;;;5096146;28;19912;-66
2022/09/09 12:08:26;;;;;;;;;;;22.70;99.90;;;;;;5096127;28;19943;-66
2022/09/09 12:10:54;;;;;;;;;;;22.90;99.90;;;;;;5096207;28;20320;-66
2022/09/09 12:13:23;;;;;;;;;;;22.60;99.90;;;;;;5095897;28;19908;-67
2022/09/09 12:15:51;;;;;;;;;;;22.60;99.90;;;;;;5095796;28;20001;-66
2022/09/09 12:18:22;;;;;;;;;;;22.50;99.90;;;;;;5096218;28;19908;-66
2022/09/09 12:21:08;;;;;;;;;;;22.50;99.90;;;;;;5096186;28;19934;-66
2022/09/09 12:23:53;;;;;;;;;;;22.60;99.90;;;;;;5095831;28;19964;-66
2022/09/09 12:26:37;;;;;;;;;;;22.80;99.90;;;;;;5095717;28;19908;-66
2022/09/09 12:29:12;;;;;;;;;;;22.40;99.90;;;;;;5094689;28;19908;-66
2022/09/09 12:31:43;;;;;;;;;;;22.70;99.90;;;;;;5094665;28;20395;-67
2022/09/09 12:34:11;;;;;;;;;;;22.60;99.90;;;;;;5095866;28;20405;-66
2022/09/09 12:36:37;;;;;;;;;;;23.10;99.90;;;;;;5096058;28;19908;-67
2022/09/09 12:39:15;;;;;;;;;;;22.90;99.90;;;;;;5095703;28;20018;-66
2022/09/09 12:41:41;;;;;;;;;;;22.90;99.90;;;;;;5095535;28;19927;-66
2022/09/09 12:44:08;;;;;;;;;;;22.30;99.90;;;;;;5095660;28;19908;-66
2022/09/09 12:46:43;;;;;;;;;;;22.10;99.90;;;;;;5095806;28;19930;-66
2022/09/09 12:49:26;;;;;;;;;;;21.90;99.90;;;;;;5094246;28;19908;-66
2022/09/09 12:51:52;;;;;;;;;;;21.70;99.90;;;;;;5095491;28;19924;-66
2022/09/09 12:54:18;;;;;;;;;;;21.80;99.90;;;;;;5095331;28;19930;-65
2022/09/09 12:56:46;;;;;;;;;;;21.80;99.90;;;;;;5095455;28;19912;-65
2022/09/09 12:59:32;;;;;;;;;;;21.80;99.90;;;;;;5095575;28;19915;-65
2022/09/09 13:01:58;;;;;;;;;;;22.10;99.90;;;;;;5095088;28;19965;-65
2022/09/09 13:04:23;;;;;;;;;;;22.00;99.90;;;;;;5095232;28;19915;-65
2022/09/09 13:06:49;;;;;;;;;;;21.90;99.90;;;;;;5094688;28;19908;-65
2022/09/09 13:09:15;;;;;;;;;;;21.70;99.90;;;;;;5095404;28;19916;-65
2022/09/09 13:11:42;;;;;;;;;;;21.50;99.90;;;;;;5095342;28;19930;-65
2022/09/09 13:14:18;;;;;;;;;;;21.50;99.90;;;;;;5095343;28;20424;-65
2022/09/09 13:16:54;;;;;;;;;;;21.40;99.90;;;;;;5095306;28;19961;-65
2022/09/09 13:19:21;;;;;;;;;;;21.30;99.90;;;;;;5095050;28;20389;-66
2022/09/09 13:21:46;;;;;;;;;;;21.20;99.90;;;;;;5095141;28;19916;-65
2022/09/09 13:24:29;;;;;;;;;;;20.90;99.90;;;;;;5094888;28;20415;-65
2022/09/09 13:26:56;;;;;;;;;;;20.70;99.90;;;;;;5095078;28;20366;-65
2022/09/09 13:29:22;;;;;;;;;;;20.60;99.90;;;;;;5095056;28;19939;-64
2022/09/09 13:31:48;;;;;;;;;;;20.10;99.90;;;;;;5093823;28;20417;-64
2022/09/09 13:34:27;;;;;;;;;;;19.40;99.90;;;;;;5093511;28;19915;-64
2022/09/09 13:36:54;;;;;;;;;;;19.10;99.90;;;;;;5094949;28;19908;-64
2022/09/09 13:39:20;;;;;;;;;;;18.60;99.90;;;;;;5094630;28;19918;-65
2022/09/09 13:41:49;;;;;;;;;;;18.60;99.90;;;;;;5094485;28;20074;-64
2022/09/09 13:44:18;;;;;;;;;;;18.80;99.90;;;;;;5075997;28;20466;-65
2022/09/09 13:46:44;;;;;;;;;;;19.00;99.90;;;;;;5094793;28;20366;-65
2022/09/09 13:49:12;;;;;;;;;;;19.10;99.90;;;;;;5094424;28;19996;-66
2022/09/09 13:51:39;;;;;;;;;;;19.40;99.90;;;;;;5094637;28;19915;-65
2022/09/09 13:54:06;;;;;;;;;;;19.50;99.90;;;;;;5094307;28;20404;-65
2022/09/09 13:56:36;;;;;;;;;;;19.50;99.90;;;;;;5094595;28;19915;-66
2022/09/09 13:59:03;;;;;;;;;;;19.70;99.90;;;;;;5093096;28;19908;-65
2022/09/09 14:01:28;;;;;;;;;;;19.70;99.90;;;;;;5094431;28;20333;-65
2022/09/09 14:03:54;;;;;;;;;;;19.70;99.90;;;;;;5094430;28;19943;-65
2022/09/09 14:06:21;;;;;;;;;;;19.80;99.90;;;;;;5094112;28;19916;-65
2022/09/09 14:08:47;;;;;;;;;;;20.10;99.90;;;;;;5092753;28;19914;-66
2022/09/09 14:11:13;;;;;;;;;;;20.40;99.90;;;;;;5094254;28;19999;-67
2022/09/09 14:13:39;;;;;;;;;;;20.50;99.90;;;;;;5094021;28;20010;-65
2022/09/09 14:16:04;;;;;;;;;;;20.30;99.90;;;;;;5093830;28;20378;-66
2022/09/09 14:18:29;;;;;;;;;;;20.60;99.90;;;;;;5093874;28;19953;-65
2022/09/09 14:20:57;;;;;;;;;;;20.90;99.90;;;;;;5093880;28;19930;-65
2022/09/09 14:23:22;;;;;;;;;;;21.20;99.90;;;;;;5094079;28;19913;-66
2022/09/09 14:25:48;;;;;;;;;;;21.30;99.90;;;;;;5094062;28;20385;-66
2022/09/09 14:28:15;;;;;;;;;;;21.30;99.90;;;;;;5094128;28;19909;-68
2022/09/09 14:30:41;;;;;;;;;;;21.20;99.90;;;;;;5075933;28;19937;-68
2022/09/09 14:33:08;;;;;;;;;;;21.10;99.90;;;;;;5094041;28;20498;-67
2022/09/09 14:35:33;;;;;;;;;;;20.90;99.90;;;;;;5094033;28;20380;-67
2022/09/09 14:38:00;;;;;;;;;;;20.90;99.90;;;;;;5093989;28;19991;-67
2022/09/09 14:40:26;;;;;;;;;;;21.10;99.90;;;;;;5093682;28;20286;-67
2022/09/09 14:42:52;;;;;;;;;;;20.90;99.90;;;;;;5093418;28;19920;-67
2022/09/09 14:45:17;;;;;;;;;;;20.60;99.90;;;;;;5093895;28;19920;-68
2022/09/09 14:47:43;;;;;;;;;;;20.40;99.90;;;;;;5093642;28;19914;-67
2022/09/09 14:50:08;;;;;;;;;;;20.40;99.90;;;;;;5093587;28;20371;-67
2022/09/09 14:52:34;;;;;;;;;;;20.30;99.90;;;;;;5093810;28;19912;-67
2022/09/09 14:54:59;;;;;;;;;;;20.30;99.90;;;;;;5093826;28;19909;-66